Time,TemperatureF,DewpointF,PressureIn,WindDirection,WindDirectionDegrees,WindSpeedMPH,WindSpeedGustMPH,Humidity,HourlyPrecipIn,Conditions,Clouds,dailyrainin,SoftwareType,DateUTC
2013-05-29 00:01:00,49.0,47.0,29.77,East,83,0.0,0.0,94,0.00,,,0.02,,2013-05-29 07:01:00,
2013-05-29 00:11:00,49.0,47.0,29.77,East,83,0.0,0.0,94,0.00,,,0.02,,2013-05-29 07:11:00,
2013-05-29 00:21:00,49.0,47.0,29.77,East,83,0.0,0.0,94,0.00,,,0.02,,2013-05-29 07:21:00,
2013-05-29 00:42:00,49.0,48.0,29.76,East,84,0.0,0.0,95,0.00,,,0.02,,2013-05-29 07:42:00,
2013-05-29 00:52:00,48.0,47.0,29.75,East,84,0.0,0.0,95,0.00,,,0.02,,2013-05-29 07:52:00,
2013-05-29 01:02:00,48.0,47.0,29.75,East,84,0.0,0.0,96,0.01,,,0.03,,2013-05-29 08:02:00,
2013-05-29 01:11:00,48.0,47.0,29.75,East,84,0.0,0.0,96,0.01,,,0.03,,2013-05-29 08:11:00,
2013-05-29 01:21:00,48.0,47.0,29.74,East,84,0.0,0.0,96,0.05,,,0.07,,2013-05-29 08:21:00,
2013-05-29 01:31:00,48.0,47.0,29.74,NNE,15,0.0,2.0,96,0.10,,,0.12,,2013-05-29 08:31:00,
2013-05-29 01:41:00,48.0,47.0,29.74,NNE,15,0.0,2.0,96,0.10,,,0.12,,2013-05-29 08:41:00,
2013-05-29 01:52:00,48.0,47.0,29.74,WNW,283,0.0,0.0,97,0.12,,,0.14,,2013-05-29 08:52:00,
2013-05-29 02:01:00,48.0,47.0,29.73,WNW,283,0.0,0.0,97,0.14,,,0.18,,2013-05-29 09:01:00,
2013-05-29 02:11:00,48.0,47.0,29.73,WNW,283,0.0,0.0,97,0.14,,,0.18,,2013-05-29 09:11:00,
2013-05-29 02:21:00,48.0,47.0,29.72,WNW,283,0.0,0.0,97,0.12,,,0.19,,2013-05-29 09:21:00,
2013-05-29 02:32:00,48.0,47.0,29.71,NW,318,0.0,0.0,97,0.10,,,0.22,,2013-05-29 09:32:00,
2013-05-29 02:42:00,48.0,47.0,29.71,NW,318,0.0,0.0,97,0.10,,,0.22,,2013-05-29 09:42:00,
2013-05-29 02:52:00,48.0,47.0,29.71,NW,318,0.0,0.0,97,0.10,,,0.24,,2013-05-29 09:52:00,
2013-05-29 03:02:00,48.0,47.0,29.70,NW,317,0.0,0.0,97,0.07,,,0.25,,2013-05-29 10:02:00,
2013-05-29 03:12:00,48.0,47.0,29.70,NW,317,0.0,0.0,97,0.07,,,0.25,,2013-05-29 10:12:00,
2013-05-29 03:22:00,48.0,47.0,29.70,NW,318,0.0,0.0,97,0.06,,,0.25,,2013-05-29 10:22:00,
2013-05-29 03:32:00,48.0,47.0,29.69,NW,318,0.0,0.0,97,0.04,,,0.26,,2013-05-29 10:32:00,
2013-05-29 03:42:00,48.0,47.0,29.69,NW,318,0.0,0.0,97,0.04,,,0.26,,2013-05-29 10:42:00,
2013-05-29 03:53:00,48.0,47.0,29.68,NNE,25,0.0,0.0,97,0.02,,,0.26,,2013-05-29 10:53:00,
2013-05-29 04:02:00,48.0,47.0,29.68,NNE,25,0.0,0.0,97,0.01,,,0.26,,2013-05-29 11:02:00,
2013-05-29 04:11:00,48.0,47.0,29.68,NNE,25,0.0,0.0,97,0.01,,,0.26,,2013-05-29 11:11:00,
2013-05-29 04:21:00,48.0,47.0,29.67,NNE,26,0.0,0.0,97,0.02,,,0.27,,2013-05-29 11:21:00,
2013-05-29 04:32:00,48.0,47.0,29.67,NW,311,0.0,0.0,97,0.02,,,0.28,,2013-05-29 11:32:00,
2013-05-29 04:41:00,48.0,47.0,29.67,NW,311,0.0,0.0,97,0.02,,,0.28,,2013-05-29 11:41:00,
2013-05-29 04:52:00,48.0,47.0,29.67,WNW,288,0.0,0.0,97,0.03,,,0.28,,2013-05-29 11:52:00,
2013-05-29 05:01:00,48.0,47.0,29.67,WNW,295,0.0,0.0,98,0.05,,,0.31,,2013-05-29 12:01:00,
2013-05-29 05:11:00,48.0,47.0,29.67,WNW,295,0.0,0.0,98,0.05,,,0.31,,2013-05-29 12:11:00,
2013-05-29 05:21:00,48.0,47.0,29.67,NNE,23,0.0,0.0,97,0.07,,,0.34,,2013-05-29 12:21:00,
2013-05-29 05:31:00,48.0,47.0,29.67,North,357,0.0,0.0,98,0.08,,,0.36,,2013-05-29 12:31:00,
2013-05-29 05:41:00,48.0,47.0,29.67,North,357,0.0,0.0,98,0.08,,,0.36,,2013-05-29 12:41:00,
2013-05-29 05:52:00,48.0,47.0,29.67,ENE,63,0.0,2.0,98,0.09,,,0.38,,2013-05-29 12:52:00,
2013-05-29 06:01:00,48.0,47.0,29.67,North,8,0.0,2.0,98,0.10,,,0.41,,2013-05-29 13:01:00,
2013-05-29 06:11:00,48.0,47.0,29.67,North,8,0.0,2.0,98,0.10,,,0.41,,2013-05-29 13:11:00,
2013-05-29 06:21:00,48.0,47.0,29.67,NW,312,0.0,2.0,98,0.09,,,0.43,,2013-05-29 13:21:00,
2013-05-29 06:31:00,48.0,47.0,29.68,NW,306,0.0,0.0,98,0.08,,,0.44,,2013-05-29 13:31:00,
2013-05-29 06:42:00,48.0,47.0,29.68,NW,306,0.0,0.0,98,0.08,,,0.44,,2013-05-29 13:42:00,
2013-05-29 06:53:00,48.0,47.0,29.68,WNW,294,0.0,0.0,98,0.09,,,0.47,,2013-05-29 13:53:00,
2013-05-29 07:01:00,48.0,47.0,29.68,WNW,285,0.0,0.0,98,0.07,,,0.48,,2013-05-29 14:01:00,
2013-05-29 07:11:00,48.0,47.0,29.68,WNW,285,0.0,0.0,98,0.07,,,0.48,,2013-05-29 14:11:00,
2013-05-29 07:21:00,48.0,47.0,29.69,NE,37,0.0,0.0,98,0.05,,,0.47,,2013-05-29 14:21:00,
2013-05-29 07:31:00,49.0,48.0,29.68,NNE,26,0.0,0.0,98,0.05,,,0.48,,2013-05-29 14:31:00,
2013-05-29 07:41:00,49.0,48.0,29.68,NNE,26,0.0,0.0,98,0.05,,,0.48,,2013-05-29 14:41:00,
2013-05-29 07:52:00,49.0,48.0,29.68,NNE,31,0.0,2.0,98,0.04,,,0.50,,2013-05-29 14:52:00,
2013-05-29 08:01:00,49.0,48.0,29.68,West,260,0.0,5.0,97,0.03,,,0.50,,2013-05-29 15:01:00,
2013-05-29 08:11:00,49.0,48.0,29.68,West,260,0.0,5.0,97,0.03,,,0.50,,2013-05-29 15:11:00,
2013-05-29 08:21:00,49.0,48.0,29.69,WNW,294,1.0,4.0,97,0.03,,,0.50,,2013-05-29 15:21:00,
2013-05-29 08:32:00,49.0,48.0,29.70,WNW,295,0.0,3.0,97,0.02,,,0.50,,2013-05-29 15:32:00,
2013-05-29 08:42:00,49.0,48.0,29.70,WNW,295,0.0,3.0,97,0.02,,,0.50,,2013-05-29 15:42:00,
2013-05-29 08:53:00,50.0,49.0,29.70,WNW,303,0.0,2.0,97,0.00,,,0.50,,2013-05-29 15:53:00,
2013-05-29 09:03:00,51.0,50.0,29.71,NW,311,0.0,5.0,97,0.00,,,0.50,,2013-05-29 16:03:00,
2013-05-29 09:12:00,51.0,50.0,29.71,NW,311,0.0,5.0,97,0.00,,,0.50,,2013-05-29 16:12:00,
2013-05-29 09:22:00,50.0,49.0,29.72,WNW,302,0.0,4.0,95,0.00,,,0.49,,2013-05-29 16:22:00,
2013-05-29 09:32:00,50.0,49.0,29.73,WNW,300,0.0,3.0,95,0.00,,,0.49,,2013-05-29 16:32:00,
2013-05-29 09:42:00,50.0,49.0,29.73,WNW,300,0.0,3.0,95,0.00,,,0.49,,2013-05-29 16:42:00,
2013-05-29 09:52:00,51.0,50.0,29.74,WNW,291,0.0,3.0,96,0.00,,,0.49,,2013-05-29 16:52:00,
2013-05-29 10:02:00,51.0,49.0,29.75,WNW,297,1.0,3.0,93,0.00,,,0.49,,2013-05-29 17:02:00,
2013-05-29 10:12:00,51.0,49.0,29.75,WNW,297,1.0,3.0,93,0.00,,,0.49,,2013-05-29 17:12:00,
2013-05-29 10:22:00,51.0,49.0,29.75,WNW,297,1.0,3.0,93,0.00,,,0.49,,2013-05-29 17:22:00,
2013-05-29 10:32:00,52.0,50.0,29.76,West,273,0.0,4.0,94,0.01,,,0.50,,2013-05-29 17:32:00,
2013-05-29 10:42:00,52.0,50.0,29.76,West,273,0.0,4.0,94,0.01,,,0.50,,2013-05-29 17:42:00,
2013-05-29 10:52:00,52.0,50.0,29.78,West,278,0.0,4.0,94,0.01,,,0.50,,2013-05-29 17:52:00,
2013-05-29 11:01:00,52.0,50.0,29.78,West,278,0.0,4.0,94,0.01,,,0.50,,2013-05-29 18:01:00,
2013-05-29 11:13:00,52.0,50.0,29.78,West,278,0.0,4.0,94,0.01,,,0.50,,2013-05-29 18:13:00,
2013-05-29 11:22:00,54.0,50.0,29.79,NW,317,0.0,4.0,87,0.01,,,0.50,,2013-05-29 18:22:00,
2013-05-29 11:32:00,55.0,51.0,29.80,NW,304,0.0,2.0,86,0.00,,,0.50,,2013-05-29 18:32:00,
2013-05-29 11:42:00,55.0,51.0,29.80,NW,304,0.0,2.0,86,0.00,,,0.50,,2013-05-29 18:42:00,
2013-05-29 11:52:00,55.0,51.0,29.80,NW,304,0.0,2.0,86,0.00,,,0.50,,2013-05-29 18:52:00,
2013-05-29 12:01:00,56.0,51.0,29.81,WNW,284,0.0,8.0,84,0.00,,,0.50,,2013-05-29 19:01:00,
2013-05-29 12:11:00,56.0,51.0,29.81,WNW,284,0.0,8.0,84,0.00,,,0.50,,2013-05-29 19:11:00,
2013-05-29 12:21:00,54.0,51.0,29.83,West,274,0.0,4.0,88,0.01,,,0.51,,2013-05-29 19:21:00,
2013-05-29 12:32:00,54.0,52.0,29.83,WNW,282,0.0,0.0,92,0.03,,,0.53,,2013-05-29 19:32:00,
2013-05-29 12:44:00,54.0,52.0,29.83,WNW,282,0.0,0.0,92,0.03,,,0.53,,2013-05-29 19:44:00,
2013-05-29 12:53:00,54.0,51.0,29.84,WSW,246,0.0,0.0,90,0.03,,,0.53,,2013-05-29 19:53:00,
2013-05-29 13:02:00,55.0,53.0,29.85,SW,220,0.0,5.0,92,0.03,,,0.53,,2013-05-29 20:02:00,
2013-05-29 13:11:00,55.0,53.0,29.85,SW,220,0.0,5.0,92,0.03,,,0.53,,2013-05-29 20:11:00,
2013-05-29 13:22:00,55.0,52.0,29.85,SW,233,0.0,6.0,91,0.02,,,0.53,,2013-05-29 20:22:00,
2013-05-29 13:32:00,56.0,52.0,29.85,West,266,0.0,4.0,85,0.00,,,0.53,,2013-05-29 20:32:00,
2013-05-29 13:42:00,56.0,52.0,29.85,West,266,0.0,4.0,85,0.00,,,0.53,,2013-05-29 20:42:00,
2013-05-29 13:52:00,56.0,50.0,29.86,SW,214,1.0,13.0,80,0.00,,,0.53,,2013-05-29 20:52:00,
2013-05-29 14:02:00,58.0,51.0,29.86,SW,233,0.0,7.0,77,0.00,,,0.53,,2013-05-29 21:02:00,
2013-05-29 14:12:00,58.0,51.0,29.86,SW,233,0.0,7.0,77,0.00,,,0.53,,2013-05-29 21:12:00,
2013-05-29 14:22:00,58.0,49.0,29.88,WSW,250,2.0,6.0,72,0.00,,,0.53,,2013-05-29 21:22:00,
2013-05-29 14:33:00,59.0,50.0,29.88,NW,307,2.0,8.0,71,0.00,,,0.53,,2013-05-29 21:33:00,
2013-05-29 14:43:00,59.0,50.0,29.88,NW,307,2.0,8.0,71,0.00,,,0.53,,2013-05-29 21:43:00,
2013-05-29 14:53:00,58.0,49.0,29.89,SSW,204,0.0,8.0,71,0.00,,,0.53,,2013-05-29 21:53:00,
2013-05-29 15:03:00,58.0,49.0,29.89,SW,231,0.0,3.0,72,0.00,,,0.53,,2013-05-29 22:03:00,
2013-05-29 15:12:00,58.0,49.0,29.89,SW,231,0.0,3.0,72,0.00,,,0.53,,2013-05-29 22:12:00,
2013-05-29 15:23:00,59.0,49.0,29.90,NW,304,3.0,10.0,69,0.00,,,0.53,,2013-05-29 22:23:00,
2013-05-29 15:33:00,58.0,47.0,29.90,WSW,238,1.0,11.0,68,0.00,,,0.53,,2013-05-29 22:33:00,
2013-05-29 15:42:00,58.0,47.0,29.90,WSW,238,1.0,11.0,68,0.00,,,0.53,,2013-05-29 22:42:00,
2013-05-29 15:53:00,59.0,48.0,29.91,West,274,0.0,11.0,67,0.00,,,0.53,,2013-05-29 22:53:00,
2013-05-29 16:02:00,58.0,48.0,29.91,WNW,285,2.0,15.0,69,0.00,,,0.53,,2013-05-29 23:02:00,
2013-05-29 16:12:00,58.0,48.0,29.91,WNW,285,2.0,15.0,69,0.00,,,0.53,,2013-05-29 23:12:00,
2013-05-29 16:21:00,58.0,49.0,29.92,West,281,1.0,9.0,72,0.00,,,0.53,,2013-05-29 23:21:00,
2013-05-29 16:33:00,59.0,49.0,29.92,West,276,0.0,5.0,70,0.00,,,0.53,,2013-05-29 23:33:00,
2013-05-29 16:42:00,59.0,49.0,29.92,West,276,0.0,5.0,70,0.00,,,0.53,,2013-05-29 23:42:00,
2013-05-29 16:53:00,59.0,48.0,29.92,WNW,293,0.0,5.0,68,0.00,,,0.53,,2013-05-29 23:53:00,
2013-05-29 17:01:00,58.0,48.0,29.93,SW,223,0.0,5.0,70,0.00,,,0.53,,2013-05-30 00:01:00,
2013-05-29 17:11:00,58.0,48.0,29.93,SW,223,0.0,5.0,70,0.00,,,0.53,,2013-05-30 00:11:00,
2013-05-29 17:21:00,58.0,47.0,29.93,WSW,238,0.0,5.0,68,0.00,,,0.53,,2013-05-30 00:21:00,
2013-05-29 17:31:00,57.0,46.0,29.93,SW,229,3.0,9.0,66,0.00,,,0.53,,2013-05-30 00:31:00,
2013-05-29 17:41:00,57.0,46.0,29.93,SW,229,3.0,9.0,66,0.00,,,0.53,,2013-05-30 00:41:00,
2013-05-29 17:52:00,58.0,48.0,29.93,NNW,330,0.0,4.0,70,0.00,,,0.53,,2013-05-30 00:52:00,
2013-05-29 18:01:00,58.0,47.0,29.93,West,268,0.0,2.0,67,0.00,,,0.53,,2013-05-30 01:01:00,
2013-05-29 18:11:00,58.0,47.0,29.93,West,268,0.0,2.0,67,0.00,,,0.53,,2013-05-30 01:11:00,
2013-05-29 18:21:00,58.0,48.0,29.93,South,176,0.0,1.0,69,0.00,,,0.53,,2013-05-30 01:21:00,
2013-05-29 18:31:00,58.0,47.0,29.93,West,274,0.0,4.0,67,0.00,,,0.53,,2013-05-30 01:31:00,
2013-05-29 18:41:00,58.0,47.0,29.93,West,274,0.0,4.0,67,0.00,,,0.53,,2013-05-30 01:41:00,
2013-05-29 18:52:00,57.0,47.0,29.94,NW,307,0.0,2.0,69,0.00,,,0.53,,2013-05-30 01:52:00,
2013-05-29 19:01:00,57.0,47.0,29.94,NW,307,0.0,2.0,69,0.00,,,0.53,,2013-05-30 02:01:00,
2013-05-29 19:11:00,57.0,47.0,29.94,NW,307,0.0,2.0,69,0.00,,,0.53,,2013-05-30 02:11:00,
2013-05-29 19:21:00,55.0,47.0,29.95,South,191,0.0,0.0,73,0.00,,,0.53,,2013-05-30 02:21:00,
2013-05-29 19:31:00,55.0,47.0,29.95,WSW,243,0.0,1.0,75,0.00,,,0.53,,2013-05-30 02:31:00,
2013-05-29 19:42:00,55.0,47.0,29.95,WSW,243,0.0,1.0,75,0.00,,,0.53,,2013-05-30 02:42:00,
2013-05-29 19:52:00,55.0,47.0,29.95,WSW,243,0.0,1.0,75,0.00,,,0.53,,2013-05-30 02:52:00,
2013-05-29 20:01:00,54.0,47.0,29.96,SE,136,0.0,3.0,77,0.00,,,0.53,,2013-05-30 03:01:00,
2013-05-29 20:11:00,54.0,48.0,29.96,WNW,286,0.0,0.0,80,0.00,,,0.53,,2013-05-30 03:11:00,
2013-05-29 20:21:00,54.0,48.0,29.96,WNW,286,0.0,0.0,80,0.00,,,0.53,,2013-05-30 03:21:00,
2013-05-29 20:32:00,54.0,48.0,29.96,WNW,286,0.0,0.0,81,0.00,,,0.53,,2013-05-30 03:32:00,
2013-05-29 20:43:00,54.0,48.0,29.96,WNW,286,0.0,0.0,81,0.00,,,0.53,,2013-05-30 03:43:00,
2013-05-29 20:53:00,53.0,48.0,29.97,WNW,285,0.0,0.0,84,0.00,,,0.53,,2013-05-30 03:53:00,
2013-05-29 21:02:00,53.0,50.0,29.97,WNW,285,0.0,0.0,88,0.00,,,0.53,,2013-05-30 04:02:00,
2013-05-29 21:12:00,53.0,50.0,29.97,WNW,285,0.0,0.0,88,0.00,,,0.53,,2013-05-30 04:12:00,
2013-05-29 21:23:00,52.0,50.0,29.97,WNW,286,0.0,0.0,92,0.00,,,0.53,,2013-05-30 04:23:00,
2013-05-29 21:32:00,51.0,49.0,29.98,WNW,286,0.0,0.0,94,0.01,,,0.54,,2013-05-30 04:32:00,
2013-05-29 21:42:00,51.0,49.0,29.98,WNW,286,0.0,0.0,94,0.01,,,0.54,,2013-05-30 04:42:00,
2013-05-29 21:53:00,50.0,48.0,29.99,WNW,286,0.0,0.0,94,0.01,,,0.54,,2013-05-30 04:53:00,
2013-05-29 22:02:00,50.0,49.0,29.99,WNW,286,0.0,0.0,95,0.01,,,0.54,,2013-05-30 05:02:00,
2013-05-29 22:12:00,50.0,49.0,29.99,WNW,286,0.0,0.0,95,0.01,,,0.54,,2013-05-30 05:12:00,
2013-05-29 22:21:00,50.0,49.0,30.00,SE,125,0.0,0.0,96,0.04,,,0.56,,2013-05-30 05:21:00,
2013-05-29 22:32:00,49.0,48.0,30.00,NNW,327,0.0,0.0,95,0.03,,,0.56,,2013-05-30 05:32:00,
2013-05-29 22:42:00,49.0,48.0,30.00,NNW,327,0.0,0.0,95,0.03,,,0.56,,2013-05-30 05:42:00,
2013-05-29 22:52:00,49.0,48.0,30.01,NW,326,0.0,0.0,95,0.03,,,0.56,,2013-05-30 05:52:00,
2013-05-29 23:01:00,48.0,47.0,30.01,WNW,293,0.0,0.0,95,0.03,,,0.56,,2013-05-30 06:01:00,
2013-05-29 23:12:00,48.0,47.0,30.01,WNW,293,0.0,0.0,95,0.03,,,0.56,,2013-05-30 06:12:00,
2013-05-29 23:21:00,48.0,46.0,30.02,West,270,2.0,8.0,93,0.00,,,0.56,,2013-05-30 06:21:00,
2013-05-29 23:32:00,49.0,46.0,30.03,WNW,297,3.0,7.0,90,0.00,,,0.56,,2013-05-30 06:32:00,
2013-05-29 23:41:00,49.0,46.0,30.03,WNW,297,3.0,7.0,90,0.00,,,0.56,,2013-05-30 06:41:00,
2013-05-29 23:52:00,48.0,46.0,30.03,SSW,197,0.0,0.0,93,0.00,,,0.56,,2013-05-30 06:52:00,